sensor_id;sensor_type;location;lat;lon;timestamp;pressure;altitude;pressure_sealevel;temperature;humidity
62374;BME280;48409;49.030;1.820;2022-12-29T00:02:12;99757.41;;;12.22;69.39
62374;BME280;48409;49.030;1.820;2022-12-29T00:04:37;99753.81;;;12.23;69.38
62374;BME280;48409;49.030;1.820;2022-12-29T00:07:03;99755.50;;;12.24;69.25
62374;BME280;48409;49.030;1.820;2022-12-29T00:09:32;99750.22;;;12.24;69.29
62374;BME280;48409;49.030;1.820;2022-12-29T00:11:58;99754.66;;;12.24;69.39
62374;BME280;48409;49.030;1.820;2022-12-29T00:14:24;99753.59;;;12.26;69.49
62374;BME280;48409;49.030;1.820;2022-12-29T00:17:08;99744.94;;;12.24;69.50
62374;BME280;48409;49.030;1.820;2022-12-29T00:19:33;99744.00;;;12.25;69.50
62374;BME280;48409;49.030;1.820;2022-12-29T00:22:17;99736.94;;;12.26;69.21
62374;BME280;48409;49.030;1.820;2022-12-29T00:25:03;99730.78;;;12.25;69.36
62374;BME280;48409;49.030;1.820;2022-12-29T00:27:37;99719.41;;;12.25;69.52
62374;BME280;48409;49.030;1.820;2022-12-29T00:30:23;99715.91;;;12.24;69.55
62374;BME280;48409;49.030;1.820;2022-12-29T00:35:59;99718.53;;;12.24;69.42
62374;BME280;48409;49.030;1.820;2022-12-29T00:38:26;99714.22;;;12.23;69.48
62374;BME280;48409;49.030;1.820;2022-12-29T00:41:10;99712.41;;;12.24;69.56
62374;BME280;48409;49.030;1.820;2022-12-29T00:43:54;99710.63;;;12.24;69.52
62374;BME280;48409;49.030;1.820;2022-12-29T00:46:33;99716.84;;;12.23;69.24
62374;BME280;48409;49.030;1.820;2022-12-29T00:48:59;99710.72;;;12.23;69.38
62374;BME280;48409;49.030;1.820;2022-12-29T00:51:43;99709.91;;;12.22;69.55
62374;BME280;48409;49.030;1.820;2022-12-29T00:54:09;99731.84;;;12.23;69.32
62374;BME280;48409;49.030;1.820;2022-12-29T00:56:34;99735.34;;;12.23;69.39
62374;BME280;48409;49.030;1.820;2022-12-29T00:59:04;99718.75;;;12.21;69.53
62374;BME280;48409;49.030;1.820;2022-12-29T01:01:30;99707.25;;;12.22;69.46
62374;BME280;48409;49.030;1.820;2022-12-29T01:03:55;99712.75;;;12.19;69.46
62374;BME280;48409;49.030;1.820;2022-12-29T01:06:21;99720.56;;;12.21;69.44
62374;BME280;48409;49.030;1.820;2022-12-29T01:08:47;99695.94;;;12.20;69.36
62374;BME280;48409;49.030;1.820;2022-12-29T01:11:32;99699.53;;;12.19;69.41
62374;BME280;48409;49.030;1.820;2022-12-29T01:13:58;99699.53;;;12.19;69.26
62374;BME280;48409;49.030;1.820;2022-12-29T01:16:23;99686.34;;;12.19;69.32
62374;BME280;48409;49.030;1.820;2022-12-29T01:18:48;99708.41;;;12.18;69.33
62374;BME280;48409;49.030;1.820;2022-12-29T01:21:14;99703.13;;;12.18;69.29
62374;BME280;48409;49.030;1.820;2022-12-29T01:23:39;99716.34;;;12.18;69.17
62374;BME280;48409;49.030;1.820;2022-12-29T01:26:12;99705.78;;;12.18;69.38
62374;BME280;48409;49.030;1.820;2022-12-29T01:28:37;99711.97;;;12.17;69.30
62374;BME280;48409;49.030;1.820;2022-12-29T01:31:07;99711.16;;;12.17;69.17
62374;BME280;48409;49.030;1.820;2022-12-29T01:33:33;99714.63;;;12.17;69.25
62374;BME280;48409;49.030;1.820;2022-12-29T01:36:03;99710.31;;;12.16;69.22
62374;BME280;48409;49.030;1.820;2022-12-29T01:38:28;99721.72;;;12.17;69.35
62374;BME280;48409;49.030;1.820;2022-12-29T01:40:53;99726.13;;;12.16;69.23
62374;BME280;48409;49.030;1.820;2022-12-29T01:43:19;99733.09;;;12.17;69.31
62374;BME280;48409;49.030;1.820;2022-12-29T01:45:53;99732.28;;;12.17;69.26
62374;BME280;48409;49.030;1.820;2022-12-29T01:48:19;99735.75;;;12.17;69.25
62374;BME280;48409;49.030;1.820;2022-12-29T01:50:50;99733.19;;;12.16;69.30
62374;BME280;48409;49.030;1.820;2022-12-29T01:53:20;99729.72;;;12.15;69.15
62374;BME280;48409;49.030;1.820;2022-12-29T01:55:52;99733.34;;;12.14;68.95
62374;BME280;48409;49.030;1.820;2022-12-29T01:58:21;99729.94;;;12.12;69.11
62374;BME280;48409;49.030;1.820;2022-12-29T02:00:47;99732.69;;;12.10;69.27
62374;BME280;48409;49.030;1.820;2022-12-29T02:03:17;99754.66;;;12.11;69.27
62374;BME280;48409;49.030;1.820;2022-12-29T02:05:49;99748.50;;;12.10;69.17
62374;BME280;48409;49.030;1.820;2022-12-29T02:08:19;99745.16;;;12.08;68.99
62374;BME280;48409;49.030;1.820;2022-12-29T02:10:46;99751.25;;;12.09;69.19
62374;BME280;48409;49.030;1.820;2022-12-29T02:13:15;99741.56;;;12.09;69.22
62374;BME280;48409;49.030;1.820;2022-12-29T02:15:51;99747.69;;;12.10;69.23
62374;BME280;48409;49.030;1.820;2022-12-29T02:18:36;99728.25;;;12.11;69.03
62374;BME280;48409;49.030;1.820;2022-12-29T02:32:30;99736.38;;;12.08;69.06
62374;BME280;48409;49.030;1.820;2022-12-29T02:35:20;99733.72;;;12.08;69.08
62374;BME280;48409;49.030;1.820;2022-12-29T02:40:58;99739.09;;;12.06;69.22
62374;BME280;48409;49.030;1.820;2022-12-29T02:43:48;99741.84;;;12.05;69.17
62374;BME280;48409;49.030;1.820;2022-12-29T02:51:57;99742.78;;;12.04;69.10
62374;BME280;48409;49.030;1.820;2022-12-29T02:54:28;99749.97;;;12.01;69.06
62374;BME280;48409;49.030;1.820;2022-12-29T02:57:28;99744.69;;;12.01;69.29
62374;BME280;48409;49.030;1.820;2022-12-29T03:00:00;99745.75;;;11.99;69.01
62374;BME280;48409;49.030;1.820;2022-12-29T03:03:19;99741.41;;;11.98;69.14
62374;BME280;48409;49.030;1.820;2022-12-29T03:08:28;99727.56;;;11.94;69.04
62374;BME280;48409;49.030;1.820;2022-12-29T03:11:02;99732.84;;;11.94;68.86
62374;BME280;48409;49.030;1.820;2022-12-29T03:13:35;99739.06;;;11.93;69.07
62374;BME280;48409;49.030;1.820;2022-12-29T03:16:46;99743.72;;;11.90;68.88
62374;BME280;48409;49.030;1.820;2022-12-29T03:19:28;99739.38;;;11.88;68.62
62374;BME280;48409;49.030;1.820;2022-12-29T03:21:59;99740.41;;;11.86;68.72
62374;BME280;48409;49.030;1.820;2022-12-29T03:24:47;99737.06;;;11.84;68.95
62374;BME280;48409;49.030;1.820;2022-12-29T03:27:20;99738.94;;;11.82;68.85
62374;BME280;48409;49.030;1.820;2022-12-29T03:29:51;99742.53;;;11.81;68.93
62374;BME280;48409;49.030;1.820;2022-12-29T03:32:28;99746.13;;;11.80;68.93
62374;BME280;48409;49.030;1.820;2022-12-29T03:34:56;99747.06;;;11.79;68.80
62374;BME280;48409;49.030;1.820;2022-12-29T03:37:26;99750.63;;;11.78;68.77
62374;BME280;48409;49.030;1.820;2022-12-29T03:39:54;99746.31;;;11.77;68.87
62374;BME280;48409;49.030;1.820;2022-12-29T03:42:21;99739.34;;;11.75;68.82
62374;BME280;48409;49.030;1.820;2022-12-29T03:44:54;99735.94;;;11.73;68.62
62374;BME280;48409;49.030;1.820;2022-12-29T03:47:21;99743.88;;;11.73;68.58
62374;BME280;48409;49.030;1.820;2022-12-29T03:49:46;99752.63;;;11.74;68.90
62374;BME280;48409;49.030;1.820;2022-12-29T03:52:12;99754.41;;;11.73;68.75
62374;BME280;48409;49.030;1.820;2022-12-29T03:54:37;99759.81;;;11.72;68.78
62374;BME280;48409;49.030;1.820;2022-12-29T03:57:03;99770.38;;;11.72;68.76
62374;BME280;48409;49.030;1.820;2022-12-29T03:59:28;99762.47;;;11.72;68.65
62374;BME280;48409;49.030;1.820;2022-12-29T04:01:53;99769.53;;;11.71;68.72
62374;BME280;48409;49.030;1.820;2022-12-29T04:04:19;99760.00;;;11.69;68.64
62374;BME280;48409;49.030;1.820;2022-12-29T04:06:44;99765.28;;;11.69;68.65
62374;BME280;48409;49.030;1.820;2022-12-29T04:09:09;99773.31;;;11.67;68.67
62374;BME280;48409;49.030;1.820;2022-12-29T04:11:36;99794.41;;;11.67;68.66
62374;BME280;48409;49.030;1.820;2022-12-29T04:14:01;99791.03;;;11.65;68.64
62374;BME280;48409;49.030;1.820;2022-12-29T04:16:29;99794.59;;;11.64;68.44
62374;BME280;48409;49.030;1.820;2022-12-29T04:18:55;99799.13;;;11.62;68.62
62374;BME280;48409;49.030;1.820;2022-12-29T04:21:23;99794.81;;;11.61;68.53
62374;BME280;48409;49.030;1.820;2022-12-29T04:23:48;99803.66;;;11.60;68.68
62374;BME280;48409;49.030;1.820;2022-12-29T04:26:13;99800.28;;;11.58;68.49
62374;BME280;48409;49.030;1.820;2022-12-29T04:28:39;99795.97;;;11.57;68.47
62374;BME280;48409;49.030;1.820;2022-12-29T04:31:04;99797.75;;;11.56;68.46
62374;BME280;48409;49.030;1.820;2022-12-29T04:33:30;99809.25;;;11.55;68.46
62374;BME280;48409;49.030;1.820;2022-12-29T04:35:56;99809.34;;;11.54;68.56
62374;BME280;48409;49.030;1.820;2022-12-29T04:38:22;99819.97;;;11.52;68.58
62374;BME280;48409;49.030;1.820;2022-12-29T04:40:49;99807.84;;;11.49;68.43
62374;BME280;48409;49.030;1.820;2022-12-29T04:43:14;99815.75;;;11.49;68.50
62374;BME280;48409;49.030;1.820;2022-12-29T04:45:44;99821.97;;;11.48;68.59
62374;BME280;48409;49.030;1.820;2022-12-29T04:48:09;99819.44;;;11.47;68.61
62374;BME280;48409;49.030;1.820;2022-12-29T04:50:35;99815.19;;;11.44;68.41
62374;BME280;48409;49.030;1.820;2022-12-29T04:53:00;99822.16;;;11.45;68.54
62374;BME280;48409;49.030;1.820;2022-12-29T04:55:26;99825.75;;;11.44;68.46
62374;BME280;48409;49.030;1.820;2022-12-29T04:57:51;99825.75;;;11.44;68.41
62374;BME280;48409;49.030;1.820;2022-12-29T05:00:16;99825.75;;;11.44;68.46
62374;BME280;48409;49.030;1.820;2022-12-29T05:02:42;99817.94;;;11.43;68.47
62374;BME280;48409;49.030;1.820;2022-12-29T05:05:07;99830.25;;;11.42;68.51
62374;BME280;48409;49.030;1.820;2022-12-29T05:07:33;99824.97;;;11.42;68.49
62374;BME280;48409;49.030;1.820;2022-12-29T05:09:59;99825.94;;;11.41;68.49
62374;BME280;48409;49.030;1.820;2022-12-29T05:12:24;99825.94;;;11.41;68.58
62374;BME280;48409;49.030;1.820;2022-12-29T05:14:50;99833.00;;;11.41;68.50
62374;BME280;48409;49.030;1.820;2022-12-29T05:17:15;99833.09;;;11.39;68.40
62374;BME280;48409;49.030;1.820;2022-12-29T05:19:40;99836.69;;;11.38;68.29
62374;BME280;48409;49.030;1.820;2022-12-29T05:22:06;99847.25;;;11.38;68.45
62374;BME280;48409;49.030;1.820;2022-12-29T05:24:31;99837.63;;;11.37;68.41
62374;BME280;48409;49.030;1.820;2022-12-29T05:26:57;99840.25;;;11.37;68.28
62374;BME280;48409;49.030;1.820;2022-12-29T05:29:22;99842.16;;;11.35;68.39
62374;BME280;48409;49.030;1.820;2022-12-29T05:31:47;99843.94;;;11.34;68.36
62374;BME280;48409;49.030;1.820;2022-12-29T05:34:13;99840.47;;;11.34;68.35
62374;BME280;48409;49.030;1.820;2022-12-29T05:36:38;99847.53;;;11.33;68.28
62374;BME280;48409;49.030;1.820;2022-12-29T05:39:07;99842.34;;;11.32;68.47
62374;BME280;48409;49.030;1.820;2022-12-29T05:41:33;99847.59;;;11.32;68.38
62374;BME280;48409;49.030;1.820;2022-12-29T05:43:59;99854.78;;;11.30;68.28
62374;BME280;48409;49.030;1.820;2022-12-29T05:46:25;99857.41;;;11.30;68.23
62374;BME280;48409;49.030;1.820;2022-12-29T05:48:51;99871.53;;;11.29;68.22
62374;BME280;48409;49.030;1.820;2022-12-29T05:51:16;99876.06;;;11.27;68.41
62374;BME280;48409;49.030;1.820;2022-12-29T05:53:41;99870.78;;;11.27;68.23
62374;BME280;48409;49.030;1.820;2022-12-29T05:56:07;99879.63;;;11.26;68.25
62374;BME280;48409;49.030;1.820;2022-12-29T05:58:32;99872.66;;;11.25;68.38
62374;BME280;48409;49.030;1.820;2022-12-29T06:00:57;99872.66;;;11.25;68.18
62374;BME280;48409;49.030;1.820;2022-12-29T06:03:23;99883.19;;;11.25;68.27
62374;BME280;48409;49.030;1.820;2022-12-29T06:05:49;99883.41;;;11.21;68.32
62374;BME280;48409;49.030;1.820;2022-12-29T06:08:14;99893.00;;;11.22;68.14
62374;BME280;48409;49.030;1.820;2022-12-29T06:10:39;99893.94;;;11.21;68.14
62374;BME280;48409;49.030;1.820;2022-12-29T06:13:05;99893.19;;;11.19;68.14
62374;BME280;48409;49.030;1.820;2022-12-29T06:15:32;99894.13;;;11.18;68.37
62374;BME280;48409;49.030;1.820;2022-12-29T06:17:57;99901.19;;;11.18;68.08
62374;BME280;48409;49.030;1.820;2022-12-29T06:20:22;99907.41;;;11.17;68.25
62374;BME280;48409;49.030;1.820;2022-12-29T06:22:48;99913.53;;;11.17;68.23
62374;BME280;48409;49.030;1.820;2022-12-29T06:25:14;99916.25;;;11.16;68.11
62374;BME280;48409;49.030;1.820;2022-12-29T06:27:40;99920.66;;;11.15;68.10
62374;BME280;48409;49.030;1.820;2022-12-29T06:30:05;99924.25;;;11.14;68.20
62374;BME280;48409;49.030;1.820;2022-12-29T06:32:31;99926.88;;;11.14;68.17
62374;BME280;48409;49.030;1.820;2022-12-29T06:34:56;99929.53;;;11.14;68.34
62374;BME280;48409;49.030;1.820;2022-12-29T06:37:22;99940.06;;;11.14;68.13
62374;BME280;48409;49.030;1.820;2022-12-29T06:39:47;99947.22;;;11.12;68.24
62374;BME280;48409;49.030;1.820;2022-12-29T06:42:12;99949.78;;;11.14;68.21
62374;BME280;48409;49.030;1.820;2022-12-29T06:44:38;99946.28;;;11.13;68.26
62374;BME280;48409;49.030;1.820;2022-12-29T06:47:03;99951.56;;;11.13;68.06
62374;BME280;48409;49.030;1.820;2022-12-29T06:49:28;99952.59;;;11.10;68.15
62374;BME280;48409;49.030;1.820;2022-12-29T06:51:54;99957.88;;;11.10;68.13
62374;BME280;48409;49.030;1.820;2022-12-29T06:54:19;99966.59;;;11.11;68.08
62374;BME280;48409;49.030;1.820;2022-12-29T06:56:44;99963.97;;;11.11;68.20
62374;BME280;48409;49.030;1.820;2022-12-29T06:59:10;99963.22;;;11.09;68.19
62374;BME280;48409;49.030;1.820;2022-12-29T07:01:35;99970.19;;;11.10;68.29
62374;BME280;48409;49.030;1.820;2022-12-29T07:04:02;99968.50;;;11.09;68.19
62374;BME280;48409;49.030;1.820;2022-12-29T07:06:27;99975.44;;;11.10;68.23
62374;BME280;48409;49.030;1.820;2022-12-29T07:08:53;99971.13;;;11.09;68.36
62374;BME280;48409;49.030;1.820;2022-12-29T07:11:20;99980.72;;;11.10;68.18
62374;BME280;48409;49.030;1.820;2022-12-29T07:13:46;99983.34;;;11.10;68.35
62374;BME280;48409;49.030;1.820;2022-12-29T07:16:11;99971.13;;;11.09;68.21
62374;BME280;48409;49.030;1.820;2022-12-29T07:18:37;99970.19;;;11.10;68.12
62374;BME280;48409;49.030;1.820;2022-12-29T07:21:03;99979.03;;;11.09;68.03
62374;BME280;48409;49.030;1.820;2022-12-29T07:23:28;99980.72;;;11.10;67.95
62374;BME280;48409;49.030;1.820;2022-12-29T07:28:25;99986.00;;;11.10;68.19
62374;BME280;48409;49.030;1.820;2022-12-29T07:30:50;99987.88;;;11.08;68.19
62374;BME280;48409;49.030;1.820;2022-12-29T07:33:16;99982.63;;;11.08;68.14
62374;BME280;48409;49.030;1.820;2022-12-29T07:35:41;99987.88;;;11.08;67.96
62374;BME280;48409;49.030;1.820;2022-12-29T07:38:07;99993.25;;;11.06;68.15
62374;BME280;48409;49.030;1.820;2022-12-29T07:40:32;99995.03;;;11.06;67.98
62374;BME280;48409;49.030;1.820;2022-12-29T07:43:03;100006.44;;;11.06;68.07
62374;BME280;48409;49.030;1.820;2022-12-29T07:45:29;100016.09;;;11.06;68.12
62374;BME280;48409;49.030;1.820;2022-12-29T07:47:55;100014.41;;;11.05;67.97
62374;BME280;48409;49.030;1.820;2022-12-29T07:50:20;100024.09;;;11.04;67.91
62374;BME280;48409;49.030;1.820;2022-12-29T07:52:48;100028.53;;;11.04;68.10
62374;BME280;48409;49.030;1.820;2022-12-29T07:55:15;100027.69;;;11.03;68.15
62374;BME280;48409;49.030;1.820;2022-12-29T07:57:40;100040.03;;;11.03;68.20
62374;BME280;48409;49.030;1.820;2022-12-29T08:00:06;100042.66;;;11.03;68.12
62374;BME280;48409;49.030;1.820;2022-12-29T08:02:32;100038.31;;;11.02;68.12
62374;BME280;48409;49.030;1.820;2022-12-29T08:04:57;100040.94;;;11.02;68.06
62374;BME280;48409;49.030;1.820;2022-12-29T08:07:22;100049.78;;;11.01;67.98
62374;BME280;48409;49.030;1.820;2022-12-29T08:09:48;100043.66;;;11.00;68.12
62374;BME280;48409;49.030;1.820;2022-12-29T08:12:13;100048.19;;;10.98;68.28
62374;BME280;48409;49.030;1.820;2022-12-29T08:14:38;100062.22;;;10.99;68.01
62374;BME280;48409;49.030;1.820;2022-12-29T08:17:04;100056.94;;;10.99;68.01
62374;BME280;48409;49.030;1.820;2022-12-29T08:19:29;100064.84;;;10.99;68.03
62374;BME280;48409;49.030;1.820;2022-12-29T08:21:54;100065.78;;;10.97;68.00
62374;BME280;48409;49.030;1.820;2022-12-29T08:24:20;100067.56;;;10.97;68.02
62374;BME280;48409;49.030;1.820;2022-12-29T08:26:45;100062.38;;;10.95;68.03
62374;BME280;48409;49.030;1.820;2022-12-29T08:29:14;100070.22;;;10.97;68.06
62374;BME280;48409;49.030;1.820;2022-12-29T08:31:39;100070.28;;;10.95;67.89
62374;BME280;48409;49.030;1.820;2022-12-29T08:34:04;100077.34;;;10.95;68.07
62374;BME280;48409;49.030;1.820;2022-12-29T08:36:31;100081.78;;;10.94;68.01
62374;BME280;48409;49.030;1.820;2022-12-29T08:38:57;100080.84;;;10.95;68.24
62374;BME280;48409;49.030;1.820;2022-12-29T08:41:23;100094.88;;;10.96;67.95
62374;BME280;48409;49.030;1.820;2022-12-29T08:43:49;100087.88;;;10.95;68.03
62374;BME280;48409;49.030;1.820;2022-12-29T08:46:15;100094.00;;;10.95;68.06
62374;BME280;48409;49.030;1.820;2022-12-29T08:48:41;100100.16;;;10.96;67.99
62374;BME280;48409;49.030;1.820;2022-12-29T08:51:07;100102.84;;;10.94;68.17
62374;BME280;48409;49.030;1.820;2022-12-29T08:53:33;100108.88;;;10.96;68.02
62374;BME280;48409;49.030;1.820;2022-12-29T08:56:00;100113.22;;;10.97;68.06
62374;BME280;48409;49.030;1.820;2022-12-29T08:58:27;100113.22;;;10.97;67.91
62374;BME280;48409;49.030;1.820;2022-12-29T09:00:56;100116.69;;;10.98;68.06
62374;BME280;48409;49.030;1.820;2022-12-29T09:03:23;100130.75;;;10.99;67.97
62374;BME280;48409;49.030;1.820;2022-12-29T09:05:50;100126.28;;;10.99;68.04
62374;BME280;48409;49.030;1.820;2022-12-29T09:08:16;100126.28;;;10.99;67.98
62374;BME280;48409;49.030;1.820;2022-12-29T09:10:43;100124.59;;;10.98;68.07
62374;BME280;48409;49.030;1.820;2022-12-29T09:13:09;100127.25;;;10.98;67.91
62374;BME280;48409;49.030;1.820;2022-12-29T09:15:34;100133.47;;;10.97;67.81
62374;BME280;48409;49.030;1.820;2022-12-29T09:18:00;100128.09;;;10.99;67.95
62374;BME280;48409;49.030;1.820;2022-12-29T09:20:25;100135.16;;;10.98;68.07
62374;BME280;48409;49.030;1.820;2022-12-29T09:22:51;100140.41;;;10.98;67.91
62374;BME280;48409;49.030;1.820;2022-12-29T09:25:16;100143.91;;;10.99;67.91
62374;BME280;48409;49.030;1.820;2022-12-29T09:27:42;100144.81;;;10.97;68.08
62374;BME280;48409;49.030;1.820;2022-12-29T09:30:10;100155.38;;;10.97;67.87
62374;BME280;48409;49.030;1.820;2022-12-29T09:32:36;100144.00;;;10.97;68.09
62374;BME280;48409;49.030;1.820;2022-12-29T09:35:01;100153.69;;;10.96;67.91
62374;BME280;48409;49.030;1.820;2022-12-29T09:37:27;100159.81;;;10.97;68.02
62374;BME280;48409;49.030;1.820;2022-12-29T09:39:53;100165.00;;;10.99;67.98
62374;BME280;48409;49.030;1.820;2022-12-29T09:45:16;100158.94;;;10.96;67.94
62374;BME280;48409;49.030;1.820;2022-12-29T09:47:44;100161.56;;;10.96;67.94
62374;BME280;48409;49.030;1.820;2022-12-29T09:52:51;100171.38;;;10.94;67.87
62374;BME280;48409;49.030;1.820;2022-12-29T09:55:21;100166.09;;;10.94;67.95
62374;BME280;48409;49.030;1.820;2022-12-29T09:58:02;100174.91;;;10.93;67.84
62374;BME280;48409;49.030;1.820;2022-12-29T10:03:27;100183.75;;;10.92;67.68
62374;BME280;48409;49.030;1.820;2022-12-29T10:06:17;100178.50;;;10.92;67.87
62374;BME280;48409;49.030;1.820;2022-12-29T10:14:33;100193.47;;;10.92;67.83
62374;BME280;48409;49.030;1.820;2022-12-29T10:25:37;100188.00;;;10.95;68.28
62374;BME280;48409;49.030;1.820;2022-12-29T10:28:06;100197.63;;;10.96;68.09
62374;BME280;48409;49.030;1.820;2022-12-29T10:30:35;100195.69;;;11.00;68.02
62374;BME280;48409;49.030;1.820;2022-12-29T10:33:05;100192.09;;;11.01;68.07
62374;BME280;48409;49.030;1.820;2022-12-29T10:35:37;100188.44;;;11.03;68.18
62374;BME280;48409;49.030;1.820;2022-12-29T10:38:27;100193.47;;;11.08;68.10
62374;BME280;48409;49.030;1.820;2022-12-29T10:41:01;100177.66;;;11.08;68.15
62374;BME280;48409;49.030;1.820;2022-12-29T10:43:45;100179.19;;;11.12;68.13
62374;BME280;48409;49.030;1.820;2022-12-29T10:46:14;100186.16;;;11.13;68.13
62374;BME280;48409;49.030;1.820;2022-12-29T10:48:41;100181.63;;;11.15;68.16
62374;BME280;48409;49.030;1.820;2022-12-29T10:51:11;100176.25;;;11.17;68.11
62374;BME280;48409;49.030;1.820;2022-12-29T10:53:49;100181.28;;;11.21;68.15
62374;BME280;48409;49.030;1.820;2022-12-29T10:56:39;100181.22;;;11.23;68.14
62374;BME280;48409;49.030;1.820;2022-12-29T11:07:17;100176.22;;;11.33;68.05
62374;BME280;48409;49.030;1.820;2022-12-29T11:09:43;100175.19;;;11.35;68.20
62374;BME280;48409;49.030;1.820;2022-12-29T11:12:22;100175.13;;;11.37;68.08
62374;BME280;48409;49.030;1.820;2022-12-29T11:15:10;100182.13;;;11.38;67.95
62374;BME280;48409;49.030;1.820;2022-12-29T11:17:58;100172.31;;;11.40;67.97
62374;BME280;48409;49.030;1.820;2022-12-29T11:22:56;100187.97;;;11.43;67.87
62374;BME280;48409;49.030;1.820;2022-12-29T11:25:22;100180.81;;;11.45;68.12
62374;BME280;48409;49.030;1.820;2022-12-29T11:28:18;100182.50;;;11.46;68.03
62374;BME280;48409;49.030;1.820;2022-12-29T11:30:44;100178.94;;;11.47;68.02
62374;BME280;48409;49.030;1.820;2022-12-29T11:33:09;100185.91;;;11.48;67.97
62374;BME280;48409;49.030;1.820;2022-12-29T11:35:38;100189.28;;;11.51;68.12
62374;BME280;48409;49.030;1.820;2022-12-29T11:38:06;100191.00;;;11.52;67.95
62374;BME280;48409;49.030;1.820;2022-12-29T11:40:41;100192.72;;;11.53;67.93
62374;BME280;48409;49.030;1.820;2022-12-29T11:43:06;100192.63;;;11.54;67.71
62374;BME280;48409;49.030;1.820;2022-12-29T11:45:45;100181.13;;;11.55;67.82
62374;BME280;48409;49.030;1.820;2022-12-29T11:48:19;100184.50;;;11.57;67.84
62374;BME280;48409;49.030;1.820;2022-12-29T11:50:54;100181.78;;;11.59;67.93
62374;BME280;48409;49.030;1.820;2022-12-29T11:53:24;100182.66;;;11.59;67.67
62374;BME280;48409;49.030;1.820;2022-12-29T11:55:52;100175.56;;;11.60;67.77
62374;BME280;48409;49.030;1.820;2022-12-29T11:58:18;100174.66;;;11.61;67.86
62374;BME280;48409;49.030;1.820;2022-12-29T12:00:45;100174.66;;;11.61;67.82
62374;BME280;48409;49.030;1.820;2022-12-29T12:03:17;100172.75;;;11.63;67.66
62374;BME280;48409;49.030;1.820;2022-12-29T12:05:49;100175.31;;;11.65;67.77
62374;BME280;48409;49.030;1.820;2022-12-29T12:08:42;100180.59;;;11.65;67.76
62374;BME280;48409;49.030;1.820;2022-12-29T12:11:28;100176.16;;;11.65;67.66
62374;BME280;48409;49.030;1.820;2022-12-29T12:14:27;100175.38;;;11.63;67.54
62374;BME280;48409;49.030;1.820;2022-12-29T12:16:59;100172.75;;;11.63;67.51
62374;BME280;48409;49.030;1.820;2022-12-29T12:22:08;100169.38;;;11.61;67.53
62374;BME280;48409;49.030;1.820;2022-12-29T12:24:47;100170.19;;;11.61;67.45
62374;BME280;48409;49.030;1.820;2022-12-29T12:27:31;100176.34;;;11.62;67.83
62374;BME280;48409;49.030;1.820;2022-12-29T12:35:03;100171.94;;;11.62;67.51
62374;BME280;48409;49.030;1.820;2022-12-29T12:37:52;100162.19;;;11.63;67.72
62374;BME280;48409;49.030;1.820;2022-12-29T12:45:51;100164.66;;;11.66;67.50
62374;BME280;48409;49.030;1.820;2022-12-29T12:51:17;100165.41;;;11.68;67.45
62374;BME280;48409;49.030;1.820;2022-12-29T12:53:59;100175.97;;;11.68;67.54
62374;BME280;48409;49.030;1.820;2022-12-29T12:59:37;100173.25;;;11.70;67.42
62374;BME280;48409;49.030;1.820;2022-12-29T13:07:43;100180.22;;;11.71;67.52
62374;BME280;48409;49.030;1.820;2022-12-29T13:12:52;100186.53;;;11.68;67.39
62374;BME280;48409;49.030;1.820;2022-12-29T13:15:45;100186.59;;;11.67;67.26
62374;BME280;48409;49.030;1.820;2022-12-29T13:18:18;100181.44;;;11.65;67.38
62374;BME280;48409;49.030;1.820;2022-12-29T13:24:03;100172.59;;;11.66;67.44
62374;BME280;48409;49.030;1.820;2022-12-29T13:26:45;100170.78;;;11.67;67.37
62374;BME280;48409;49.030;1.820;2022-12-29T13:29:18;100176.16;;;11.65;67.23
62374;BME280;48409;49.030;1.820;2022-12-29T13:34:20;100176.81;;;11.69;67.29
62374;BME280;48409;49.030;1.820;2022-12-29T13:36:54;100176.91;;;11.67;67.33
62374;BME280;48409;49.030;1.820;2022-12-29T13:39:33;100176.16;;;11.65;67.16
62374;BME280;48409;49.030;1.820;2022-12-29T13:42:01;100171.72;;;11.66;67.21
62374;BME280;48409;49.030;1.820;2022-12-29T13:46:59;100178.81;;;11.65;67.26
62374;BME280;48409;49.030;1.820;2022-12-29T13:49:29;100180.41;;;11.68;67.26
62374;BME280;48409;49.030;1.820;2022-12-29T13:52:05;100170.69;;;11.68;67.06
62374;BME280;48409;49.030;1.820;2022-12-29T13:59:44;100175.06;;;11.69;67.01
62374;BME280;48409;49.030;1.820;2022-12-29T14:07:45;100189.94;;;11.70;67.26
62374;BME280;48409;49.030;1.820;2022-12-29T14:10:38;100184.66;;;11.70;67.14
62374;BME280;48409;49.030;1.820;2022-12-29T14:13:17;100194.25;;;11.71;67.10
62374;BME280;48409;49.030;1.820;2022-12-29T14:15:45;100195.00;;;11.73;67.20
62374;BME280;48409;49.030;1.820;2022-12-29T14:18:23;100195.00;;;11.73;66.99
62374;BME280;48409;49.030;1.820;2022-12-29T14:21:08;100202.00;;;11.74;67.19
62374;BME280;48409;49.030;1.820;2022-12-29T14:23:40;100197.47;;;11.77;67.04
62374;BME280;48409;49.030;1.820;2022-12-29T14:28:35;100189.56;;;11.77;66.98
62374;BME280;48409;49.030;1.820;2022-12-29T14:33:39;100200.88;;;11.79;67.02
62374;BME280;48409;49.030;1.820;2022-12-29T14:36:26;100205.22;;;11.80;67.17
62374;BME280;48409;49.030;1.820;2022-12-29T14:38:58;100203.31;;;11.82;66.97
62374;BME280;48409;49.030;1.820;2022-12-29T14:44:02;100202.41;;;11.83;66.92
62374;BME280;48409;49.030;1.820;2022-12-29T14:49:14;100208.59;;;11.82;66.80
62374;BME280;48409;49.030;1.820;2022-12-29T14:51:41;100203.31;;;11.82;66.76
62374;BME280;48409;49.030;1.820;2022-12-29T14:54:34;100211.25;;;11.82;66.92
62374;BME280;48409;49.030;1.820;2022-12-29T15:00:01;100214.91;;;11.79;66.81
62374;BME280;48409;49.030;1.820;2022-12-29T15:02:33;100219.34;;;11.79;66.65
62374;BME280;48409;49.030;1.820;2022-12-29T15:05:00;100212.34;;;11.78;66.80
62374;BME280;48409;49.030;1.820;2022-12-29T15:07:28;100222.91;;;11.78;66.83
62374;BME280;48409;49.030;1.820;2022-12-29T15:10:00;100211.63;;;11.75;66.88
62374;BME280;48409;49.030;1.820;2022-12-29T15:12:41;100216.88;;;11.75;66.78